Time;durP1;ratioP1;P1;durP2;ratioP2;P2;SDS_P1;SDS_P2;PMS_P1;PMS_P2;Temp;Humidity;BMP_temperature;BMP_pressure;BME280_temperature;BME280_humidity;BME280_pressure;Samples;Min_cycle;Max_cycle;Signal;HPM_P1;HPM_P2
2022/09/29 00:00:47;;;;;;;9.98;4.70;;;;;;;6.97;100.00;98597.31;4995658;28;20025;-79
2022/09/29 00:03:13;;;;;;;11.68;4.70;;;;;;;7.07;100.00;98589.47;5013162;28;20045;-79
2022/09/29 00:05:49;;;;;;;9.30;4.50;;;;;;;7.03;100.00;98587.81;5013000;28;20068;-79
2022/09/29 00:08:15;;;;;;;7.60;4.07;;;;;;;6.97;100.00;98595.41;5012189;28;20041;-79
2022/09/29 00:10:40;;;;;;;9.50;4.50;;;;;;;7.06;100.00;98596.03;4995475;28;20092;-79
2022/09/29 00:13:06;;;;;;;10.18;4.95;;;;;;;7.03;100.00;98601.31;5012937;28;20061;-79
2022/09/29 00:15:31;;;;;;;8.43;4.97;;;;;;;6.96;100.00;98601.16;4995551;28;20486;-79
2022/09/29 00:17:56;;;;;;;9.93;4.43;;;;;;;7.15;100.00;98598.56;5012978;28;20026;-79
2022/09/29 00:20:23;;;;;;;9.10;4.32;;;;;;;7.06;100.00;98593.31;5013193;28;20352;-79
2022/09/29 00:22:50;;;;;;;9.18;4.50;;;;;;;6.97;100.00;98600.03;5012999;28;20037;-79
2022/09/29 00:25:15;;;;;;;11.55;5.35;;;;;;;6.90;100.00;98595.22;5012889;28;20083;-79
2022/09/29 00:27:40;;;;;;;8.93;4.30;;;;;;;6.85;100.00;98601.66;4995281;28;20030;-79
2022/09/29 00:30:06;;;;;;;10.90;4.77;;;;;;;6.84;100.00;98591.97;5012812;28;20278;-79
2022/09/29 00:32:31;;;;;;;10.88;4.43;;;;;;;6.82;100.00;98593.44;5012829;28;20021;-79
2022/09/29 00:34:57;;;;;;;9.73;4.40;;;;;;;6.82;100.00;98594.22;5011799;28;20042;-79
2022/09/29 00:37:22;;;;;;;12.50;5.03;;;;;;;6.88;100.00;98590.13;5011749;28;20277;-80
2022/09/29 00:39:47;;;;;;;11.40;4.68;;;;;;;6.87;100.00;98591.25;5012974;28;20168;-79
2022/09/29 00:42:18;;;;;;;12.57;5.80;;;;;;;6.88;100.00;98589.34;5012728;28;20030;-79
2022/09/29 00:45:31;;;;;;;13.63;5.20;;;;;;;6.92;100.00;98588.31;4978799;28;20030;-79
2022/09/29 00:48:11;;;;;;;12.60;4.95;;;;;;;6.98;100.00;98596.19;4999784;28;20088;-79
2022/09/29 00:50:45;;;;;;;11.02;4.93;;;;;;;6.97;100.00;98589.97;4995451;28;20036;-79
2022/09/29 00:53:14;;;;;;;9.88;4.70;;;;;;;6.99;100.00;98592.34;5012643;28;20021;-79
2022/09/29 00:55:48;;;;;;;14.18;6.13;;;;;;;7.03;100.00;98595.91;5012565;28;20479;-79
2022/09/29 00:58:33;;;;;;;8.90;4.72;;;;;;;7.03;100.00;98599.41;4994721;28;20380;-79
2022/09/29 01:00:59;;;;;;;11.10;5.28;;;;;;;7.03;100.00;98596.69;4995548;28;20037;-81
2022/09/29 01:03:30;;;;;;;10.48;4.68;;;;;;;7.05;100.00;98596.34;5012911;28;20033;-81
2022/09/29 01:06:03;;;;;;;12.40;5.40;;;;;;;7.03;100.00;98599.41;5011959;28;20060;-81
2022/09/29 01:08:54;;;;;;;11.68;5.18;;;;;;;7.04;100.00;98589.38;5012576;28;20029;-81
2022/09/29 01:11:23;;;;;;;15.68;6.03;;;;;;;7.01;100.00;98592.78;4994846;28;20022;-82
2022/09/29 01:13:54;;;;;;;9.75;4.80;;;;;;;7.01;100.00;98592.78;5012744;28;20406;-81
2022/09/29 01:16:19;;;;;;;8.57;4.30;;;;;;;6.98;100.00;98590.78;5012661;28;20105;-81
2022/09/29 01:18:47;;;;;;;12.93;5.07;;;;;;;6.94;100.00;98586.06;5012169;28;20465;-81
2022/09/29 01:21:43;;;;;;;11.57;4.93;;;;;;;6.92;100.00;98591.03;5012437;28;20034;-81
2022/09/29 01:24:27;;;;;;;8.65;4.25;;;;;;;6.91;100.00;98592.16;4994763;28;20072;-81
2022/09/29 01:26:55;;;;;;;14.60;5.30;;;;;;;6.95;100.00;98594.97;4995066;28;20030;-81
2022/09/29 01:29:27;;;;;;;9.88;4.93;;;;;;;6.95;100.00;98589.53;4994941;28;20088;-80
2022/09/29 01:32:07;;;;;;;9.68;4.82;;;;;;;7.08;100.00;98595.69;4995060;28;20112;-81
2022/09/29 01:34:54;;;;;;;8.05;4.03;;;;;;;7.00;100.00;98596.63;5011636;28;20037;-81
2022/09/29 01:37:29;;;;;;;11.60;4.68;;;;;;;6.88;100.00;98598.25;4994600;28;20478;-80
2022/09/29 01:40:28;;;;;;;8.20;4.50;;;;;;;6.83;100.00;98590.41;5011984;28;20117;-78
2022/09/29 01:43:24;;;;;;;10.90;4.53;;;;;;;6.82;100.00;98594.22;5012153;28;20034;-80
2022/09/29 01:46:03;;;;;;;11.88;4.80;;;;;;;6.80;100.00;98593.78;4996620;28;20026;-81
2022/09/29 01:48:49;;;;;;;9.13;4.18;;;;;;;6.78;100.00;98598.78;4993348;28;20034;-82
2022/09/29 01:51:23;;;;;;;12.18;4.70;;;;;;;6.77;100.00;98607.22;4994326;28;20025;-81
2022/09/29 01:54:03;;;;;;;11.88;4.45;;;;;;;6.76;100.00;98601.03;5011957;28;20455;-82
2022/09/29 01:56:36;;;;;;;13.35;5.15;;;;;;;6.79;100.00;98599.56;5006911;28;20054;-82
2022/09/29 01:59:10;;;;;;;13.13;5.50;;;;;;;6.73;100.00;98601.72;5011944;28;20431;-81
2022/09/29 02:01:42;;;;;;;9.60;4.55;;;;;;;6.71;100.00;98598.56;4994462;28;20018;-81
2022/09/29 02:04:33;;;;;;;9.20;4.63;;;;;;;6.69;100.00;98600.81;5011967;28;20053;-82
2022/09/29 02:07:10;;;;;;;10.13;4.75;;;;;;;6.64;100.00;98592.97;5011942;28;20041;-82
2022/09/29 02:09:53;;;;;;;9.65;4.57;;;;;;;6.68;100.00;98601.97;5012079;28;20026;-80
2022/09/29 02:12:25;;;;;;;10.90;4.85;;;;;;;6.65;100.00;98594.53;4994300;28;20030;-82
2022/09/29 02:14:58;;;;;;;10.15;4.28;;;;;;;6.69;100.00;98600.81;5011874;28;20072;-81
2022/09/29 02:17:37;;;;;;;12.48;4.80;;;;;;;6.61;100.00;98597.16;5012400;28;20056;-82
2022/09/29 02:20:04;;;;;;;11.30;5.00;;;;;;;6.57;100.00;98603.59;5015049;28;20120;-83
2022/09/29 02:22:29;;;;;;;13.07;5.13;;;;;;;6.56;100.00;98602.03;4997588;28;20041;-81
2022/09/29 02:25:03;;;;;;;11.02;4.70;;;;;;;6.53;100.00;98605.41;5015482;28;20328;-82
2022/09/29 02:27:32;;;;;;;13.07;4.95;;;;;;;6.50;100.00;98606.09;5014461;28;20385;-81
2022/09/29 02:29:58;;;;;;;8.48;4.28;;;;;;;6.56;100.00;98602.81;4997349;28;20433;-81
2022/09/29 02:32:24;;;;;;;14.10;5.05;;;;;;;6.58;100.00;98602.47;4997497;28;20041;-81
2022/09/29 02:34:54;;;;;;;10.45;5.30;;;;;;;6.55;100.00;98603.97;4997526;28;20120;-81
2022/09/29 02:37:46;;;;;;;12.27;5.13;;;;;;;6.55;100.00;98595.84;5014649;28;20049;-81
2022/09/29 02:40:50;;;;;;;13.57;5.00;;;;;;;6.54;100.00;98604.28;5015321;28;20052;-81
2022/09/29 02:43:33;;;;;;;10.95;5.05;;;;;;;6.54;100.00;98601.56;5014973;28;20390;-81
2022/09/29 02:46:28;;;;;;;10.15;5.20;;;;;;;6.55;100.00;98601.25;4997383;28;20021;-81
2022/09/29 02:49:31;;;;;;;11.32;4.60;;;;;;;6.59;100.00;98602.13;4996379;28;20050;-80
2022/09/29 02:52:01;;;;;;;9.07;4.72;;;;;;;6.70;100.00;98602.41;4997122;28;20023;-81
2022/09/29 02:54:49;;;;;;;7.72;3.97;;;;;;;6.66;100.00;98601.53;4996876;28;20451;-81
2022/09/29 02:57:48;;;;;;;10.02;4.85;;;;;;;6.65;100.00;98605.38;4997043;28;20026;-80
2022/09/29 03:00:17;;;;;;;9.35;3.75;;;;;;;6.64;100.00;98603.78;5014662;28;20479;-80
2022/09/29 03:02:43;;;;;;;8.43;3.80;;;;;;;6.63;100.00;98604.94;4997083;28;20080;-80
2022/09/29 03:05:16;;;;;;;9.80;4.13;;;;;;;6.63;100.00;98608.41;5014087;28;20054;-79
2022/09/29 03:07:44;;;;;;;9.60;4.47;;;;;;;6.62;100.00;98606.84;4997102;28;20046;-80
2022/09/29 03:10:16;;;;;;;11.32;4.80;;;;;;;6.75;100.00;98604.88;5014326;28;20025;-79
2022/09/29 03:12:45;;;;;;;8.43;4.15;;;;;;;6.71;100.00;98609.38;4996716;28;20030;-80
2022/09/29 03:15:17;;;;;;;8.90;4.18;;;;;;;6.71;100.00;98603.97;4980969;28;20029;-81
2022/09/29 03:17:42;;;;;;;7.40;3.88;;;;;;;6.69;100.00;98605.44;5014265;28;20026;-80
2022/09/29 03:20:21;;;;;;;9.27;4.57;;;;;;;6.70;100.00;98605.09;5014214;28;20072;-80
2022/09/29 03:22:47;;;;;;;9.30;4.40;;;;;;;6.73;100.00;98601.72;4996445;28;20061;-79
2022/09/29 03:25:29;;;;;;;9.17;4.10;;;;;;;6.85;100.00;98607.06;5014005;28;20069;-80
2022/09/29 03:27:55;;;;;;;9.20;4.20;;;;;;;6.85;100.00;98601.66;4996073;28;20272;-80
2022/09/29 03:30:22;;;;;;;9.87;4.37;;;;;;;7.13;100.00;98596.19;4996153;28;20045;-80
2022/09/29 03:32:48;;;;;;;14.82;4.75;;;;;;;7.23;100.00;98597.63;4996139;28;20030;-80
2022/09/29 03:35:16;;;;;;;9.88;4.55;;;;;;;7.13;100.00;98600.81;4996376;28;20026;-79
2022/09/29 03:37:42;;;;;;;9.90;3.83;;;;;;;6.98;100.00;98593.47;5013549;28;20026;-79
2022/09/29 03:40:09;;;;;;;7.90;3.90;;;;;;;6.86;100.00;98595.09;4996068;28;20022;-80
2022/09/29 03:42:52;;;;;;;9.35;3.80;;;;;;;6.84;100.00;98600.09;5013931;28;20022;-80
2022/09/29 03:45:20;;;;;;;7.53;3.75;;;;;;;6.66;100.00;98596.13;5013903;28;20032;-80
2022/09/29 03:47:45;;;;;;;7.50;3.97;;;;;;;6.50;100.00;98595.28;4996135;28;20033;-80
2022/09/29 03:50:15;;;;;;;8.30;4.07;;;;;;;6.48;100.00;98600.25;5013643;28;20025;-84
2022/09/29 03:52:40;;;;;;;8.00;4.00;;;;;;;6.42;100.00;98602.41;4996198;28;20355;-84
2022/09/29 03:55:11;;;;;;;6.67;3.50;;;;;;;6.37;100.00;98605.34;5013145;28;20482;-85
2022/09/29 03:57:36;;;;;;;11.38;4.47;;;;;;;6.30;100.00;98600.53;5013830;28;20272;-83
2022/09/29 04:00:03;;;;;;;;;;;;;;;6.28;100.00;98605.50;4996547;28;20053;-81
2022/09/29 04:02:28;;;;;;;10.70;4.13;;;;;;;6.25;100.00;98608.09;5013266;28;19917;-82
2022/09/29 04:04:54;;;;;;;9.13;4.15;;;;;;;6.24;100.00;98612.72;4995612;28;20046;-83
2022/09/29 04:07:23;;;;;;;7.50;3.35;;;;;;;6.32;100.00;98616.41;5013414;28;20552;-82
2022/09/29 04:09:51;;;;;;;9.50;4.43;;;;;;;6.27;100.00;98617.44;5013004;28;20438;-84
2022/09/29 04:12:16;;;;;;;10.93;3.65;;;;;;;6.25;100.00;98616.22;5013161;28;20044;-82
2022/09/29 04:14:42;;;;;;;17.05;4.70;;;;;;;6.24;100.00;98618.13;4995276;28;20030;-83
2022/09/29 04:17:09;;;;;;;8.85;3.97;;;;;;;6.24;100.00;98615.44;5012824;28;20053;-84
2022/09/29 04:19:34;;;;;;;8.02;4.15;;;;;;;6.26;100.00;98626.69;4995740;28;20113;-82
2022/09/29 04:21:59;;;;;;;8.05;3.40;;;;;;;6.29;100.00;98620.59;4995012;28;20115;-82
2022/09/29 04:24:25;;;;;;;8.03;3.90;;;;;;;6.32;100.00;98625.31;4995438;28;20061;-84
2022/09/29 04:26:50;;;;;;;9.17;4.50;;;;;;;6.33;100.00;98624.19;4994986;28;20037;-83
2022/09/29 04:29:15;;;;;;;9.85;4.15;;;;;;;6.38;100.00;98612.31;4995136;28;20033;-84
2022/09/29 04:31:51;;;;;;;10.27;4.90;;;;;;;6.42;100.00;98626.75;5012726;28;20036;-83
2022/09/29 04:34:16;;;;;;;10.80;4.85;;;;;;;6.43;100.00;98616.72;5013262;28;20484;-83
2022/09/29 04:36:42;;;;;;;10.37;3.93;;;;;;;6.44;100.00;98629.91;5012908;28;20061;-81
2022/09/29 04:39:07;;;;;;;8.50;4.60;;;;;;;6.46;100.00;98629.56;5012334;28;20033;-84
2022/09/29 04:41:38;;;;;;;8.80;4.90;;;;;;;6.47;100.00;98628.41;5011724;28;20033;-83
2022/09/29 04:44:07;;;;;;;11.75;4.55;;;;;;;6.51;100.00;98632.78;5012945;28;20034;-83
2022/09/29 04:49:25;;;;;;;8.32;3.95;;;;;;;6.56;100.00;98629.09;5013246;28;20026;-82
2022/09/29 04:51:51;;;;;;;9.73;4.90;;;;;;;6.53;100.00;98637.84;4995475;28;20149;-83
2022/09/29 04:54:16;;;;;;;11.77;5.57;;;;;;;6.51;100.00;98640.13;5013336;28;20065;-82
2022/09/29 04:57:08;;;;;;;12.65;5.90;;;;;;;6.48;100.00;98643.50;5013934;28;20038;-83
2022/09/29 04:59:34;;;;;;;13.38;5.03;;;;;;;6.55;100.00;98644.53;5014176;28;20064;-84
2022/09/29 05:01:59;;;;;;;11.83;5.50;;;;;;;6.63;100.00;98634.69;5013583;28;20030;-83
2022/09/29 05:04:24;;;;;;;9.95;5.43;;;;;;;6.62;100.00;98642.00;4995897;28;20398;-84
2022/09/29 05:06:53;;;;;;;8.43;4.53;;;;;;;6.74;100.00;98637.69;5013422;28;20402;-84
2022/09/29 05:09:20;;;;;;;9.70;4.65;;;;;;;6.69;100.00;98649.53;4964372;28;20038;-82
2022/09/29 05:11:57;;;;;;;9.40;4.85;;;;;;;6.61;100.00;98650.47;4996232;28;20483;-82
2022/09/29 05:14:25;;;;;;;10.95;5.00;;;;;;;6.66;100.00;98644.00;4995162;28;20474;-82
2022/09/29 05:17:00;;;;;;;9.65;5.03;;;;;;;6.64;100.00;98657.88;5012085;28;20072;-82
2022/09/29 05:19:25;;;;;;;10.95;5.55;;;;;;;6.56;100.00;98656.91;5012585;28;20112;-82
2022/09/29 05:21:51;;;;;;;14.33;5.70;;;;;;;6.52;100.00;98649.81;5012319;28;20064;-84
2022/09/29 05:24:16;;;;;;;12.88;5.70;;;;;;;6.47;100.00;98655.47;4993997;28;20388;-83
2022/09/29 05:26:41;;;;;;;12.07;5.50;;;;;;;6.43;100.00;98652.66;5012121;28;20076;-84
2022/09/29 05:29:07;;;;;;;11.10;5.20;;;;;;;6.42;100.00;98656.50;4994612;28;20029;-83
2022/09/29 05:31:33;;;;;;;9.23;4.93;;;;;;;6.43;100.00;98657.28;4994819;28;20475;-83
2022/09/29 05:33:59;;;;;;;12.55;5.68;;;;;;;6.41;100.00;98659.53;5011987;28;20034;-82
2022/09/29 05:36:28;;;;;;;10.60;5.43;;;;;;;6.41;100.00;98664.94;4995369;28;20508;-83
2022/09/29 05:38:56;;;;;;;13.13;5.57;;;;;;;6.45;100.00;98663.91;5013101;28;20086;-83
2022/09/29 05:41:22;;;;;;;12.88;5.68;;;;;;;6.43;100.00;98657.28;5012305;28;20398;-84
2022/09/29 05:43:48;;;;;;;;;;;;;;;6.42;100.00;98663.81;5013625;28;20034;-82
2022/09/29 05:46:21;;;;;;;11.38;5.55;;;;;;;6.52;100.00;98666.03;4995337;28;20401;-84
2022/09/29 05:48:50;;;;;;;10.70;5.43;;;;;;;6.70;100.00;98672.72;4979132;28;20145;-84
2022/09/29 05:51:21;;;;;;;11.93;5.35;;;;;;;6.70;100.00;98674.66;4994154;28;20030;-84
2022/09/29 05:53:47;;;;;;;11.90;5.78;;;;;;;6.80;100.00;98672.25;4999007;28;20557;-83
2022/09/29 05:56:27;;;;;;;13.82;5.65;;;;;;;6.89;100.00;98672.13;4998442;28;20064;-84
2022/09/29 05:59:18;;;;;;;19.88;8.80;;;;;;;6.91;100.00;98673.34;4999162;28;20505;-84
2022/09/29 06:01:42;;;;;;;19.60;7.07;;;;;;;6.80;100.00;98671.47;5015475;28;20129;-84
2022/09/29 06:04:07;;;;;;;11.57;6.28;;;;;;;7.01;100.00;98671.25;4998577;28;20076;-83
2022/09/29 06:06:35;;;;;;;12.60;6.27;;;;;;;7.05;99.52;98678.34;5015921;28;20052;-83
2022/09/29 06:09:13;;;;;;;12.25;5.80;;;;;;;6.97;100.00;98679.28;5016461;28;20276;-85
2022/09/29 06:11:39;;;;;;;10.18;4.88;;;;;;;6.93;100.00;98684.59;5014010;28;20050;-83
2022/09/29 06:14:05;;;;;;;11.48;5.85;;;;;;;7.03;100.00;98687.94;4998255;28;20064;-84
2022/09/29 06:16:32;;;;;;;12.95;5.60;;;;;;;6.98;100.00;98690.91;4998142;28;20092;-85
2022/09/29 06:18:59;;;;;;;12.10;5.63;;;;;;;7.12;100.00;98686.66;4997838;28;20112;-84
2022/09/29 06:21:26;;;;;;;11.57;5.28;;;;;;;7.02;99.59;98689.06;5015645;28;20026;-84
2022/09/29 06:23:57;;;;;;;9.05;4.82;;;;;;;7.24;99.41;98689.31;5015017;28;20030;-84
2022/09/29 06:26:25;;;;;;;14.68;6.22;;;;;;;7.08;99.25;98690.41;5014762;28;20030;-84
2022/09/29 06:28:52;;;;;;;14.10;6.03;;;;;;;7.11;99.95;98697.84;5015061;28;20069;-84
2022/09/29 06:31:19;;;;;;;11.95;5.88;;;;;;;7.20;99.59;98696.53;5014459;28;20030;-83
2022/09/29 06:33:48;;;;;;;10.50;5.00;;;;;;;7.37;99.95;98700.06;4997049;28;20545;-81
2022/09/29 06:39:09;;;;;;;10.32;5.57;;;;;;;7.55;97.15;98704.78;5015180;28;20040;-83
2022/09/29 06:41:34;;;;;;;12.07;5.65;;;;;;;7.38;97.43;98710.53;5014727;28;20467;-83
2022/09/29 06:44:01;;;;;;;9.55;4.53;;;;;;;7.34;97.93;98712.38;4996898;28;20030;-84
2022/09/29 06:46:26;;;;;;;10.00;4.60;;;;;;;7.37;97.30;98711.66;5014427;28;20494;-84
2022/09/29 06:48:55;;;;;;;11.73;4.90;;;;;;;7.41;97.37;98711.78;5013778;28;20073;-85
2022/09/29 06:51:21;;;;;;;11.07;4.78;;;;;;;7.46;97.45;98715.00;4996607;28;20288;-84
2022/09/29 06:53:48;;;;;;;10.85;4.93;;;;;;;7.67;96.04;98713.97;5014386;28;20030;-83
2022/09/29 06:56:13;;;;;;;9.85;4.43;;;;;;;7.67;96.33;98714.75;4996663;28;20048;-84
2022/09/29 06:58:39;;;;;;;10.73;5.07;;;;;;;7.76;96.72;98720.81;5014267;28;20038;-83
2022/09/29 07:01:06;;;;;;;9.10;4.83;;;;;;;7.97;95.18;98720.53;5014449;28;20061;-83
2022/09/29 07:03:32;;;;;;;10.15;4.65;;;;;;;7.93;94.92;98725.09;5013394;28;20606;-84
2022/09/29 07:06:02;;;;;;;7.88;3.78;;;;;;;7.90;94.79;98725.81;5014038;28;20033;-84
2022/09/29 07:08:30;;;;;;;7.93;3.83;;;;;;;8.02;95.43;98739.25;4996392;28;20021;-83
2022/09/29 07:10:56;;;;;;;8.65;4.47;;;;;;;7.97;94.76;98731.38;5014680;28;20082;-84
2022/09/29 07:13:22;;;;;;;10.93;4.38;;;;;;;7.97;94.59;98734.09;4996103;28;20036;-84
2022/09/29 07:15:48;;;;;;;6.53;3.75;;;;;;;8.14;95.18;98733.72;5013602;28;20060;-85
2022/09/29 07:18:14;;;;;;;17.67;5.07;;;;;;;7.97;94.66;98736.81;5013745;28;20037;-85
2022/09/29 07:20:40;;;;;;;10.40;4.15;;;;;;;8.08;93.97;98740.56;5012144;28;20041;-84
2022/09/29 07:23:07;;;;;;;9.70;4.27;;;;;;;8.18;93.72;98744.66;5013959;28;20517;-84
2022/09/29 07:25:33;;;;;;;8.10;4.05;;;;;;;8.21;93.90;98743.16;5013866;28;20215;-84
2022/09/29 07:27:59;;;;;;;8.15;3.90;;;;;;;8.08;93.15;98746.00;4993964;28;20112;-82
2022/09/29 07:30:26;;;;;;;15.23;5.00;;;;;;;8.10;93.65;98746.41;4995477;28;20041;-83
2022/09/29 07:32:54;;;;;;;10.05;4.50;;;;;;;8.09;93.88;98747.56;4995986;28;20109;-83
2022/09/29 07:35:22;;;;;;;7.68;4.22;;;;;;;8.41;93.46;98745.63;4992318;28;20026;-82
2022/09/29 07:37:54;;;;;;;7.47;3.92;;;;;;;8.35;93.84;98744.31;4995898;28;20025;-83
2022/09/29 07:40:22;;;;;;;7.93;3.88;;;;;;;8.66;92.18;98751.59;5013465;28;20088;-83
2022/09/29 07:42:48;;;;;;;12.95;5.30;;;;;;;8.71;93.07;98753.22;5013441;28;20486;-84
2022/09/29 07:45:16;;;;;;;10.68;4.45;;;;;;;8.89;91.88;98756.31;5013356;28;20052;-83
2022/09/29 07:47:41;;;;;;;7.85;3.67;;;;;;;8.80;92.51;98755.75;5013537;28;20040;-84
2022/09/29 07:50:08;;;;;;;6.83;3.90;;;;;;;8.90;91.33;98757.88;5013036;28;20022;-84
2022/09/29 07:52:35;;;;;;;7.22;3.75;;;;;;;8.99;90.75;98761.19;4995371;28;20355;-84
2022/09/29 07:55:03;;;;;;;7.43;3.65;;;;;;;9.03;91.17;98759.34;5013171;28;20097;-83
2022/09/29 07:57:28;;;;;;;8.27;4.28;;;;;;;9.09;90.46;98766.06;5013343;28;20026;-85
2022/09/29 07:59:56;;;;;;;8.52;4.50;;;;;;;9.12;90.03;98757.22;5013124;28;20076;-84
2022/09/29 08:02:22;;;;;;;7.85;3.83;;;;;;;9.01;90.99;98764.34;5013295;28;20030;-84
2022/09/29 08:04:47;;;;;;;7.40;3.88;;;;;;;9.09;91.21;98766.06;4994871;28;20053;-84
2022/09/29 08:07:12;;;;;;;12.40;4.40;;;;;;;9.19;89.54;98764.69;5013084;28;20147;-84
2022/09/29 08:09:38;;;;;;;12.73;5.77;;;;;;;9.35;89.52;98773.56;5012626;28;20025;-85
2022/09/29 08:12:03;;;;;;;7.13;3.87;;;;;;;9.41;88.46;98782.22;5012491;28;20277;-84
2022/09/29 08:14:29;;;;;;;8.60;4.83;;;;;;;9.37;89.10;98775.91;4994995;28;20326;-85
2022/09/29 08:16:54;;;;;;;7.32;3.85;;;;;;;9.42;87.80;98775.63;4995271;28;20263;-86
2022/09/29 08:19:19;;;;;;;6.93;3.50;;;;;;;9.58;87.21;98777.13;5012767;28;20109;-84
2022/09/29 08:21:48;;;;;;;6.20;3.20;;;;;;;9.79;86.24;98776.72;5013116;28;20359;-85
2022/09/29 08:24:18;;;;;;;8.55;3.38;;;;;;;9.68;86.78;98786.59;5013134;28;20034;-85
2022/09/29 08:26:44;;;;;;;5.97;3.03;;;;;;;9.77;86.07;98783.66;5012679;28;20225;-87
2022/09/29 08:29:13;;;;;;;6.70;3.20;;;;;;;9.86;88.18;98778.75;4995041;28;20493;-84
2022/09/29 08:31:38;;;;;;;5.60;2.67;;;;;;;10.07;85.34;98784.56;4994714;28;20493;-87
2022/09/29 08:34:04;;;;;;;6.97;3.10;;;;;;;9.98;85.47;98789.47;4994201;28;20057;-85
2022/09/29 08:36:30;;;;;;;8.70;3.47;;;;;;;10.23;83.75;98795.34;5012479;28;20689;-84
2022/09/29 08:38:56;;;;;;;8.45;3.40;;;;;;;10.30;83.09;98797.41;4994445;28;20437;-83
2022/09/29 08:41:32;;;;;;;;;;;;;;;10.23;85.88;98798.06;5012342;28;20029;-83
2022/09/29 08:44:09;;;;;;;7.53;3.03;;;;;;;10.27;84.91;98804.38;4994745;28;19909;-84
2022/09/29 08:47:00;;;;;;;7.40;3.05;;;;;;;10.34;84.22;98807.19;4994483;28;20060;-84
2022/09/29 08:49:39;;;;;;;4.97;2.45;;;;;;;10.33;84.31;98811.06;5009815;28;20486;-86
2022/09/29 08:52:14;;;;;;;6.72;3.05;;;;;;;10.51;84.36;98805.88;4993891;28;20119;-85
2022/09/29 08:54:42;;;;;;;6.72;2.65;;;;;;;10.58;82.18;98811.44;4992836;28;20103;-85
2022/09/29 08:57:20;;;;;;;4.97;2.15;;;;;;;10.75;81.08;98810.94;4994556;28;20394;-84
2022/09/29 08:59:57;;;;;;;6.22;2.60;;;;;;;10.64;82.34;98806.47;5012715;28;20021;-84
2022/09/29 09:02:54;;;;;;;5.65;2.50;;;;;;;10.85;82.44;98815.72;4994625;28;20037;-84
2022/09/29 09:05:44;;;;;;;7.78;2.50;;;;;;;11.11;81.38;98817.66;5012282;28;20053;-86
2022/09/29 09:08:24;;;;;;;6.32;2.58;;;;;;;11.02;79.61;98822.56;5012414;28;20022;-86
2022/09/29 09:11:30;;;;;;;6.20;2.90;;;;;;;10.84;80.57;98822.34;5011244;28;20117;-86
2022/09/29 09:14:24;;;;;;;5.95;2.22;;;;;;;10.67;81.02;98820.13;5012151;28;20025;-86
2022/09/29 09:17:16;;;;;;;6.25;2.33;;;;;;;10.85;81.09;98821.19;4992708;28;20141;-87
2022/09/29 09:19:47;;;;;;;7.40;2.22;;;;;;;10.85;81.00;98826.63;4994207;28;20049;-85
2022/09/29 09:22:23;;;;;;;11.20;3.05;;;;;;;10.91;81.38;98824.34;4994580;28;20546;-86
2022/09/29 09:25:21;;;;;;;7.75;3.80;;;;;;;10.99;81.57;98831.50;4995299;28;20121;-85
2022/09/29 09:28:00;;;;;;;6.72;2.85;;;;;;;11.03;81.60;98826.88;4996579;28;20034;-85
2022/09/29 09:30:33;;;;;;;6.78;2.40;;;;;;;11.45;78.44;98826.66;5016246;28;20037;-84
2022/09/29 09:33:06;;;;;;;5.00;2.90;;;;;;;11.29;80.69;98825.28;5016184;28;20060;-83
2022/09/29 09:35:43;;;;;;;5.88;2.60;;;;;;;11.29;80.61;98828.00;4998650;28;20442;-85
2022/09/29 09:38:27;;;;;;;6.93;2.83;;;;;;;11.33;80.12;98828.81;4998652;28;20034;-84
2022/09/29 09:40:58;;;;;;;6.05;2.88;;;;;;;11.45;80.19;98825.84;4998887;28;20427;-87
2022/09/29 09:43:30;;;;;;;5.85;2.72;;;;;;;11.52;80.99;98830.59;5015874;28;20026;-85
2022/09/29 09:46:21;;;;;;;5.28;2.80;;;;;;;11.51;80.11;98818.13;4997797;28;20105;-84
2022/09/29 09:49:19;;;;;;;4.82;2.17;;;;;;;11.63;80.02;98826.84;5015740;28;20032;-85
2022/09/29 09:51:52;;;;;;;6.25;2.15;;;;;;;11.90;78.84;98824.81;4919599;29;20040;-83
2022/09/29 09:54:37;;;;;;;6.40;2.78;;;;;;;12.37;75.56;98825.22;4935930;29;20047;-85
2022/09/29 09:57:18;;;;;;;6.65;3.03;;;;;;;12.51;76.75;98831.59;4990119;28;20034;-84
2022/09/29 10:00:07;;;;;;;5.28;2.30;;;;;;;12.22;76.18;98832.50;4998045;28;20037;-87
2022/09/29 10:02:37;;;;;;;5.63;2.00;;;;;;;12.05;76.31;98831.19;5016557;28;20030;-84
2022/09/29 10:05:03;;;;;;;4.15;2.00;;;;;;;12.02;76.07;98832.72;5015184;28;20046;-84
2022/09/29 10:07:29;;;;;;;5.40;2.35;;;;;;;12.03;76.85;98830.78;4997203;28;20479;-84
2022/09/29 10:10:14;;;;;;;6.30;2.13;;;;;;;11.91;76.28;98834.56;5015055;28;20037;-86
2022/09/29 10:12:39;;;;;;;3.78;2.00;;;;;;;12.03;75.76;98830.78;5015702;28;20029;-84
2022/09/29 10:15:19;;;;;;;4.28;1.67;;;;;;;11.84;76.14;98836.44;5015166;28;20026;-85
2022/09/29 10:17:58;;;;;;;3.92;1.80;;;;;;;11.65;74.27;98829.19;5015156;28;20073;-85
2022/09/29 10:20:36;;;;;;;9.55;3.05;;;;;;;11.79;75.08;98831.34;5016049;28;20022;-85
2022/09/29 10:23:25;;;;;;;4.05;1.52;;;;;;;12.41;72.27;98826.03;5014954;28;20053;-86
2022/09/29 10:26:25;;;;;;;4.65;1.33;;;;;;;12.37;71.40;98831.47;5015432;28;20029;-86
2022/09/29 10:29:35;;;;;;;3.42;1.17;;;;;;;12.33;70.17;98838.88;4994981;28;20036;-86
2022/09/29 10:32:06;;;;;;;3.20;1.23;;;;;;;12.36;69.31;98832.63;5015624;28;20030;-85
2022/09/29 10:34:41;;;;;;;3.95;1.73;;;;;;;12.59;69.09;98835.16;4998404;28;20048;-86
2022/09/29 10:37:34;;;;;;;3.87;1.63;;;;;;;12.44;70.59;98836.22;4998161;28;20032;-87
2022/09/29 10:40:11;;;;;;;3.33;1.40;;;;;;;12.23;68.72;98845.78;4997160;28;20026;-86
2022/09/29 10:42:45;;;;;;;3.05;1.33;;;;;;;11.81;69.99;98837.19;5014961;28;20026;-86
2022/09/29 10:45:22;;;;;;;3.65;1.50;;;;;;;11.69;71.17;98841.69;5014676;28;20029;-85
2022/09/29 10:48:09;;;;;;;2.72;1.10;;;;;;;11.75;72.52;98845.66;5013269;28;20029;-86
2022/09/29 10:50:50;;;;;;;3.95;1.60;;;;;;;11.73;72.73;98847.19;4997593;28;20026;-86
2022/09/29 10:53:31;;;;;;;4.22;1.95;;;;;;;11.66;72.40;98850.63;5014594;28;20508;-87
2022/09/29 10:56:00;;;;;;;5.88;1.52;;;;;;;11.91;71.48;98847.41;5014811;28;20513;-86
2022/09/29 10:58:44;;;;;;;4.72;1.65;;;;;;;12.09;69.98;98842.91;5016466;28;20079;-86
2022/09/29 11:01:14;;;;;;;7.30;1.60;;;;;;;12.49;69.60;98852.25;5015050;28;20498;-85
2022/09/29 11:03:49;;;;;;;6.85;1.90;;;;;;;12.42;70.03;98849.44;4997324;28;20069;-85
2022/09/29 11:06:15;;;;;;;3.47;1.35;;;;;;;12.23;67.78;98851.25;5015105;28;20339;-86
2022/09/29 11:09:00;;;;;;;;;;;;;;;12.53;67.92;98853.06;4997509;28;20022;-83
2022/09/29 11:11:29;;;;;;;3.83;1.63;;;;;;;12.53;67.29;98861.25;4996990;28;20373;-84
2022/09/29 11:13:55;;;;;;;3.95;1.45;;;;;;;12.80;67.34;98848.97;5014879;28;20042;-84
2022/09/29 11:16:30;;;;;;;18.20;2.38;;;;;;;12.95;64.07;98850.66;5014427;28;20083;-85
2022/09/29 11:19:13;;;;;;;4.53;1.60;;;;;;;13.02;64.10;98849.13;5014261;28;20470;-84
2022/09/29 11:21:41;;;;;;;2.13;1.00;;;;;;;12.82;63.63;98860.31;4996745;28;20032;-84
2022/09/29 11:24:06;;;;;;;4.97;1.20;;;;;;;12.68;64.52;98856.69;4997035;28;20064;-85
2022/09/29 11:26:32;;;;;;;3.17;1.33;;;;;;;12.57;66.61;98853.88;5015003;28;20034;-86
2022/09/29 11:29:21;;;;;;;;;;;;;;;12.38;68.43;98865.03;5015006;28;20030;-85
2022/09/29 11:31:56;;;;;;;3.80;1.35;;;;;;;12.38;68.89;98870.47;4991383;28;20405;-85
2022/09/29 11:34:36;;;;;;;5.07;2.10;;;;;;;12.92;65.98;98867.78;5014721;28;20510;-86
2022/09/29 11:37:29;;;;;;;3.25;1.30;;;;;;;12.45;65.37;98865.09;5014145;28;20060;-86
2022/09/29 11:40:37;;;;;;;4.25;1.67;;;;;;;12.72;66.35;98863.75;5013997;28;20028;-87
2022/09/29 11:43:21;;;;;;;;;;;;;;;12.58;63.69;98866.34;4993319;28;20041;-85
2022/09/29 11:46:12;;;;;;;3.58;0.98;;;;;;;12.74;62.56;98864.13;5014194;28;19909;-86
2022/09/29 11:49:05;;;;;;;2.55;1.00;;;;;;;13.18;60.40;98868.75;4979208;28;20061;-85
2022/09/29 11:51:44;;;;;;;3.95;1.15;;;;;;;13.22;60.66;98869.56;5014519;28;20057;-86
2022/09/29 11:54:30;;;;;;;4.45;1.42;;;;;;;13.33;61.75;98869.63;5014010;28;20119;-88
2022/09/29 11:57:14;;;;;;;3.90;1.30;;;;;;;13.32;61.64;98868.06;5014867;28;20682;-84
2022/09/29 11:59:54;;;;;;;3.28;1.33;;;;;;;13.29;61.42;98869.63;4996620;28;20029;-85
2022/09/29 12:02:25;;;;;;;3.35;1.40;;;;;;;13.78;60.32;98865.53;4997583;28;20026;-84
2022/09/29 12:05:00;;;;;;;4.72;1.55;;;;;;;13.96;58.29;98863.63;5015270;28;20064;-83
2022/09/29 12:07:37;;;;;;;2.55;1.00;;;;;;;13.91;59.79;98866.72;5014348;28;20120;-84